Time;durP1;ratioP1;P1;durP2;ratioP2;P2;SDS_P1;SDS_P2;PMS_P1;PMS_P2;Temp;Humidity;BMP_temperature;BMP_pressure;BME280_temperature;BME280_humidity;BME280_pressure;Samples;Min_cycle;Max_cycle;Signal;HPM_P1;HPM_P2
2022/05/18 00:00:27;;;;;;;4.80;3.20;;;;;;;;;;6236573;23;20439;-53
2022/05/18 00:02:53;;;;;;;8.23;3.37;;;;;;;;;;6223562;22;21049;-53
2022/05/18 00:05:20;;;;;;;4.03;3.07;;;;;;;;;;6234070;23;20605;-55
2022/05/18 00:07:46;;;;;;;6.80;3.00;;;;;;;;;;6220731;23;20370;-52
2022/05/18 00:10:12;;;;;;;2.90;2.60;;;;;;;;;;6230042;23;20382;-54
2022/05/18 00:12:59;;;;;;;3.50;3.03;;;;;;;;;;6235001;23;20420;-53
2022/05/18 00:15:33;;;;;;;5.63;3.33;;;;;;;;;;6236830;22;20937;-54
2022/05/18 00:18:08;;;;;;;4.07;3.67;;;;;;;;;;6220710;23;21120;-53
2022/05/18 00:20:34;;;;;;;3.17;2.87;;;;;;;;;;6234774;22;20437;-55
2022/05/18 00:23:01;;;;;;;3.30;2.83;;;;;;;;;;6209156;23;20903;-54
2022/05/18 00:25:29;;;;;;;6.00;3.20;;;;;;;;;;6212714;23;20444;-54
2022/05/18 00:27:55;;;;;;;2.80;2.47;;;;;;;;;;6233179;23;20417;-55
2022/05/18 00:30:21;;;;;;;3.17;2.87;;;;;;;;;;6208451;23;20722;-53
2022/05/18 00:32:47;;;;;;;3.50;3.20;;;;;;;;;;6235955;23;20774;-54
2022/05/18 00:35:26;;;;;;;4.73;2.90;;;;;;;;;;6231013;23;20366;-54
2022/05/18 00:37:52;;;;;;;2.83;2.50;;;;;;;;;;6225565;23;20794;-53
2022/05/18 00:40:22;;;;;;;3.60;2.90;;;;;;;;;;6217556;23;20377;-53
2022/05/18 00:42:48;;;;;;;5.07;2.80;;;;;;;;;;6233291;22;20382;-55
2022/05/18 00:45:14;;;;;;;3.10;2.80;;;;;;;;;;6227147;23;20398;-54
2022/05/18 00:48:06;;;;;;;3.43;3.13;;;;;;;;;;6233776;23;20371;-54
2022/05/18 00:50:35;;;;;;;5.23;3.27;;;;;;;;;;6220854;23;20432;-52
2022/05/18 00:53:11;;;;;;;3.40;3.10;;;;;;;;;;6210188;23;20916;-53
2022/05/18 00:55:38;;;;;;;4.60;3.03;;;;;;;;;;6223355;22;20371;-54
2022/05/18 00:58:34;;;;;;;3.73;3.17;;;;;;;;;;6223803;23;20374;-53
2022/05/18 01:01:07;;;;;;;5.20;2.70;;;;;;;;;;6253210;22;20392;-54
2022/05/18 01:03:38;;;;;;;4.97;2.90;;;;;;;;;;6228314;22;20438;-54
2022/05/18 01:06:15;;;;;;;7.47;3.20;;;;;;;;;;6233902;23;20408;-54
2022/05/18 01:08:47;;;;;;;3.80;2.87;;;;;;;;;;6217532;23;20529;-55
2022/05/18 01:11:18;;;;;;;5.30;3.27;;;;;;;;;;6231631;23;20402;-53
2022/05/18 01:13:45;;;;;;;4.07;3.03;;;;;;;;;;6212229;23;20409;-54
2022/05/18 01:16:12;;;;;;;4.13;3.00;;;;;;;;;;6230610;23;20817;-54
2022/05/18 01:18:40;;;;;;;5.87;3.10;;;;;;;;;;6209715;23;20412;-54
2022/05/18 01:21:06;;;;;;;3.17;2.70;;;;;;;;;;6231576;23;20687;-54
2022/05/18 01:23:38;;;;;;;4.23;3.20;;;;;;;;;;6204885;23;21152;-55
2022/05/18 01:26:07;;;;;;;3.43;3.00;;;;;;;;;;6231404;22;20393;-53
2022/05/18 01:28:34;;;;;;;4.70;3.37;;;;;;;;;;6208690;23;20619;-53
2022/05/18 01:31:03;;;;;;;4.37;3.80;;;;;;;;;;6231250;23;20441;-53
2022/05/18 01:33:29;;;;;;;6.20;3.70;;;;;;;;;;6225038;22;20387;-56
2022/05/18 01:35:55;;;;;;;3.13;2.73;;;;;;;;;;6233275;23;20471;-55
2022/05/18 01:38:21;;;;;;;4.83;3.50;;;;;;;;;;6211665;23;20159;-60
2022/05/18 01:40:47;;;;;;;3.83;3.40;;;;;;;;;;6229076;23;20901;-53
2022/05/18 01:43:21;;;;;;;3.50;2.83;;;;;;;;;;6212015;23;20683;-53
2022/05/18 01:45:51;;;;;;;5.27;3.43;;;;;;;;;;6228855;23;20401;-55
2022/05/18 01:48:18;;;;;;;4.13;3.30;;;;;;;;;;6210326;23;21063;-54
2022/05/18 01:50:47;;;;;;;4.20;3.77;;;;;;;;;;6228812;23;20753;-53
2022/05/18 01:53:25;;;;;;;3.93;3.60;;;;;;;;;;6226435;23;20905;-53
2022/05/18 01:55:55;;;;;;;4.20;3.70;;;;;;;;;;6230028;22;20401;-54
2022/05/18 01:58:25;;;;;;;8.30;3.03;;;;;;;;;;6203812;23;20386;-54
2022/05/18 02:01:07;;;;;;;3.90;3.30;;;;;;;;;;6231199;23;20708;-53
2022/05/18 02:03:38;;;;;;;4.93;3.67;;;;;;;;;;6220763;23;20437;-53
2022/05/18 02:06:04;;;;;;;4.43;3.70;;;;;;;;;;6230693;23;20394;-54
2022/05/18 02:08:46;;;;;;;8.87;4.63;;;;;;;;;;6218211;23;20421;-53
2022/05/18 02:11:13;;;;;;;9.30;3.90;;;;;;;;;;6216831;22;20959;-52
2022/05/18 02:13:39;;;;;;;5.47;3.23;;;;;;;;;;6227348;23;20377;-53
2022/05/18 02:16:05;;;;;;;5.03;3.97;;;;;;;;;;6215736;23;20358;-53
2022/05/18 02:18:31;;;;;;;5.80;3.40;;;;;;;;;;6228035;23;20432;-54
2022/05/18 02:20:57;;;;;;;3.70;2.97;;;;;;;;;;6214088;23;20370;-54
2022/05/18 02:23:26;;;;;;;5.40;3.50;;;;;;;;;;6234833;23;20773;-54
2022/05/18 02:25:52;;;;;;;3.73;3.00;;;;;;;;;;6215424;23;20460;-54
2022/05/18 02:28:18;;;;;;;4.37;3.93;;;;;;;;;;6231484;23;20370;-55
2022/05/18 02:30:45;;;;;;;9.20;3.47;;;;;;;;;;6216317;23;20427;-53
2022/05/18 02:33:11;;;;;;;5.47;3.20;;;;;;;;;;6236116;23;20494;-52
2022/05/18 02:35:40;;;;;;;5.87;4.27;;;;;;;;;;6224106;23;20858;-53
2022/05/18 02:38:07;;;;;;;6.53;3.77;;;;;;;;;;6230764;22;20460;-54
2022/05/18 02:40:33;;;;;;;4.57;3.73;;;;;;;;;;6209167;23;20389;-54
2022/05/18 02:42:59;;;;;;;5.67;3.60;;;;;;;;;;6231583;23;20429;-52
2022/05/18 02:45:27;;;;;;;4.10;3.60;;;;;;;;;;6214205;23;20638;-53
2022/05/18 02:48:02;;;;;;;5.30;3.83;;;;;;;;;;6229427;23;20410;-55
2022/05/18 02:50:29;;;;;;;6.37;3.87;;;;;;;;;;6250182;22;20377;-53
2022/05/18 02:52:55;;;;;;;4.97;3.80;;;;;;;;;;6204399;23;20418;-52
2022/05/18 02:58:12;;;;;;;6.93;4.13;;;;;;;;;;6233292;23;20584;-55
2022/05/18 03:00:51;;;;;;;4.37;3.97;;;;;;;;;;6236822;22;20385;-53
2022/05/18 03:03:20;;;;;;;4.10;3.00;;;;;;;;;;6232060;22;20433;-54
2022/05/18 03:05:46;;;;;;;4.87;3.20;;;;;;;;;;6226273;23;20382;-53
2022/05/18 03:08:13;;;;;;;3.83;3.53;;;;;;;;;;6232013;23;20724;-54
2022/05/18 03:10:51;;;;;;;8.00;3.73;;;;;;;;;;6216553;23;20324;-53
2022/05/18 03:13:17;;;;;;;5.33;3.80;;;;;;;;;;6231559;23;20453;-54
2022/05/18 03:15:46;;;;;;;4.70;3.83;;;;;;;;;;6221518;23;20362;-54
2022/05/18 03:18:17;;;;;;;7.60;4.60;;;;;;;;;;6230106;22;20371;-53
2022/05/18 03:23:43;;;;;;;4.13;3.57;;;;;;;;;;6196503;23;21159;-54
2022/05/18 03:26:28;;;;;;;5.47;4.17;;;;;;;;;;6228617;23;20378;-53
2022/05/18 03:32:05;;;;;;;6.67;4.27;;;;;;;;;;6225075;23;20386;-54
2022/05/18 03:34:33;;;;;;;6.90;4.20;;;;;;;;;;6229128;23;20374;-53
2022/05/18 03:37:08;;;;;;;4.50;3.67;;;;;;;;;;6227544;23;20748;-53
2022/05/18 03:39:40;;;;;;;13.60;5.90;;;;;;;;;;6228643;22;20373;-53
2022/05/18 03:42:07;;;;;;;5.80;4.63;;;;;;;;;;6230551;22;20877;-52
2022/05/18 03:44:44;;;;;;;9.30;5.27;;;;;;;;;;6230713;23;21095;-54
2022/05/18 03:47:10;;;;;;;7.50;5.20;;;;;;;;;;6234491;22;20435;-54
2022/05/18 03:49:42;;;;;;;8.80;5.80;;;;;;;;;;6221525;22;20378;-52
2022/05/18 03:52:09;;;;;;;9.87;5.43;;;;;;;;;;6229680;23;20387;-52
2022/05/18 03:54:52;;;;;;;14.23;8.60;;;;;;;;;;6229416;23;20442;-52
2022/05/18 03:57:22;;;;;;;10.40;6.50;;;;;;;;;;6256027;22;20473;-53
2022/05/18 03:59:48;;;;;;;9.20;6.03;;;;;;;;;;6203730;23;20424;-53
2022/05/18 04:02:15;;;;;;;9.33;6.13;;;;;;;;;;6231817;23;20465;-54
2022/05/18 04:04:45;;;;;;;9.40;5.57;;;;;;;;;;6228929;22;20829;-51
2022/05/18 04:07:13;;;;;;;9.43;5.83;;;;;;;;;;6235022;23;20409;-53
2022/05/18 04:09:39;;;;;;;5.67;5.07;;;;;;;;;;6226698;23;20756;-53
2022/05/18 04:12:05;;;;;;;5.13;4.63;;;;;;;;;;6233783;23;20462;-55
2022/05/18 04:14:31;;;;;;;7.57;6.00;;;;;;;;;;6230534;23;20405;-53
2022/05/18 04:17:05;;;;;;;6.73;4.90;;;;;;;;;;6234540;23;20358;-53
2022/05/18 04:19:32;;;;;;;6.80;5.73;;;;;;;;;;6213052;23;21114;-53
2022/05/18 04:22:06;;;;;;;5.70;4.60;;;;;;;;;;6236168;23;20369;-54
2022/05/18 04:24:36;;;;;;;7.40;4.90;;;;;;;;;;6215313;22;20544;-54
2022/05/18 04:27:02;;;;;;;10.90;5.40;;;;;;;;;;6233633;23;20448;-53
2022/05/18 04:29:28;;;;;;;8.50;6.20;;;;;;;;;;6228179;23;21114;-52
2022/05/18 04:31:54;;;;;;;6.63;5.03;;;;;;;;;;6231013;23;20998;-52
2022/05/18 04:34:40;;;;;;;6.53;5.10;;;;;;;;;;6229008;23;20378;-54
2022/05/18 04:37:08;;;;;;;6.30;4.33;;;;;;;;;;6203904;22;20392;-53
2022/05/18 04:39:34;;;;;;;8.00;4.60;;;;;;;;;;6224933;23;20495;-53
2022/05/18 04:42:00;;;;;;;4.93;4.43;;;;;;;;;;6209445;23;20178;-51
2022/05/18 04:44:26;;;;;;;5.73;5.07;;;;;;;;;;6230826;23;20221;-52
2022/05/18 04:46:59;;;;;;;4.40;4.00;;;;;;;;;;6198945;23;20841;-52
2022/05/18 04:49:28;;;;;;;10.93;5.10;;;;;;;;;;6232741;23;20382;-52
2022/05/18 04:52:07;;;;;;;5.43;4.10;;;;;;;;;;6227770;23;20440;-53
2022/05/18 04:54:35;;;;;;;7.00;4.77;;;;;;;;;;6236502;22;20392;-54
2022/05/18 04:57:01;;;;;;;8.17;5.00;;;;;;;;;;6229048;23;20727;-53
2022/05/18 04:59:28;;;;;;;4.73;4.30;;;;;;;;;;6235314;23;20742;-54
2022/05/18 05:01:59;;;;;;;7.13;4.67;;;;;;;;;;6195931;23;20453;-53
2022/05/18 05:04:28;;;;;;;7.77;5.40;;;;;;;;;;6233567;22;20483;-54
2022/05/18 05:06:57;;;;;;;8.07;4.67;;;;;;;;;;6212374;23;20884;-53
2022/05/18 05:09:24;;;;;;;4.80;4.20;;;;;;;;;;6220484;22;20378;-53
2022/05/18 05:12:12;;;;;;;5.07;4.00;;;;;;;;;;6232204;22;20381;-54
2022/05/18 05:14:53;;;;;;;6.23;4.60;;;;;;;;;;6228201;22;20374;-54
2022/05/18 05:17:19;;;;;;;5.77;5.00;;;;;;;;;;6226897;23;20415;-51
2022/05/18 05:19:45;;;;;;;4.63;4.17;;;;;;;;;;6213705;23;20715;-52
2022/05/18 05:22:12;;;;;;;6.20;3.73;;;;;;;;;;6238377;23;20888;-54
2022/05/18 05:24:50;;;;;;;5.23;4.60;;;;;;;;;;6234854;22;20429;-54
2022/05/18 05:27:16;;;;;;;6.90;4.50;;;;;;;;;;6234645;23;20381;-53
2022/05/18 05:29:43;;;;;;;4.43;3.90;;;;;;;;;;6190944;23;20366;-54
2022/05/18 05:32:09;;;;;;;7.93;4.93;;;;;;;;;;6236152;22;20892;-54
2022/05/18 05:34:35;;;;;;;6.87;4.57;;;;;;;;;;6232935;23;20437;-52
2022/05/18 05:37:01;;;;;;;5.10;3.90;;;;;;;;;;6237463;23;20465;-54
2022/05/18 05:39:27;;;;;;;5.30;3.67;;;;;;;;;;6216866;23;20558;-53
2022/05/18 05:41:53;;;;;;;7.63;4.23;;;;;;;;;;6238492;23;20386;-52
2022/05/18 05:44:20;;;;;;;3.70;3.10;;;;;;;;;;6229934;22;20905;-53
2022/05/18 05:46:46;;;;;;;5.07;3.80;;;;;;;;;;6236816;23;20726;-52
2022/05/18 05:49:25;;;;;;;6.37;3.90;;;;;;;;;;6228428;23;20865;-54
2022/05/18 05:51:52;;;;;;;8.10;4.17;;;;;;;;;;6228404;22;20459;-52
2022/05/18 05:54:18;;;;;;;4.70;3.93;;;;;;;;;;6214197;23;20418;-53
2022/05/18 05:56:45;;;;;;;3.90;3.40;;;;;;;;;;6234483;23;20377;-54
2022/05/18 05:59:30;;;;;;;5.57;3.90;;;;;;;;;;6229322;23;20453;-54
2022/05/18 06:05:03;;;;;;;6.80;4.30;;;;;;;;;;6223207;23;20656;-52
2022/05/18 06:07:30;;;;;;;4.43;3.20;;;;;;;;;;6241549;22;20441;-53
2022/05/18 06:09:56;;;;;;;5.83;3.57;;;;;;;;;;6218906;22;20871;-54
2022/05/18 06:12:22;;;;;;;4.07;3.40;;;;;;;;;;6240538;23;20362;-54
2022/05/18 06:14:49;;;;;;;5.23;3.57;;;;;;;;;;6204798;23;20530;-53
2022/05/18 06:17:15;;;;;;;5.50;3.37;;;;;;;;;;6241087;23;20378;-54
2022/05/18 06:19:53;;;;;;;6.07;3.67;;;;;;;;;;6239156;23;20405;-54
2022/05/18 06:22:19;;;;;;;6.57;4.10;;;;;;;;;;6263910;22;20385;-54
2022/05/18 06:24:49;;;;;;;5.77;3.67;;;;;;;;;;6223149;23;20693;-54
2022/05/18 06:27:16;;;;;;;5.23;3.40;;;;;;;;;;6240907;22;20749;-52
2022/05/18 06:29:52;;;;;;;5.67;3.57;;;;;;;;;;6235431;23;20366;-54
2022/05/18 06:32:18;;;;;;;7.63;3.90;;;;;;;;;;6239956;23;20388;-53
2022/05/18 06:34:48;;;;;;;4.57;3.00;;;;;;;;;;6230053;23;20374;-54
2022/05/18 06:37:16;;;;;;;5.50;3.30;;;;;;;;;;6238455;22;20383;-53
2022/05/18 06:39:59;;;;;;;3.73;3.43;;;;;;;;;;6241424;22;20363;-54
2022/05/18 06:42:30;;;;;;;6.80;3.60;;;;;;;;;;6237824;22;20390;-53
2022/05/18 06:44:58;;;;;;;7.23;4.17;;;;;;;;;;6226685;23;20856;-51
2022/05/18 06:47:25;;;;;;;8.23;4.13;;;;;;;;;;6236249;23;20386;-52
2022/05/18 06:49:54;;;;;;;5.80;4.40;;;;;;;;;;6236684;23;20617;-53
2022/05/18 06:52:20;;;;;;;3.80;2.93;;;;;;;;;;6241029;23;20413;-53
2022/05/18 06:54:48;;;;;;;6.83;3.83;;;;;;;;;;6224205;22;20420;-53
2022/05/18 06:57:14;;;;;;;4.67;3.87;;;;;;;;;;6240284;22;20553;-54
2022/05/18 06:59:40;;;;;;;4.50;4.00;;;;;;;;;;6232050;23;20378;-53
2022/05/18 07:02:07;;;;;;;4.73;4.00;;;;;;;;;;6239827;23;20377;-53
2022/05/18 07:04:45;;;;;;;4.80;3.10;;;;;;;;;;6232111;22;20842;-53
2022/05/18 07:07:11;;;;;;;4.27;3.40;;;;;;;;;;6235831;23;20393;-52
2022/05/18 07:09:44;;;;;;;6.30;4.10;;;;;;;;;;6223705;23;20382;-52
2022/05/18 07:12:10;;;;;;;5.60;4.17;;;;;;;;;;6240339;23;20736;-53
2022/05/18 07:14:40;;;;;;;6.10;3.50;;;;;;;;;;6234124;22;20382;-52
2022/05/18 07:17:06;;;;;;;5.50;3.77;;;;;;;;;;6235916;23;21213;-52
2022/05/18 07:19:38;;;;;;;6.80;4.50;;;;;;;;;;6226209;23;20417;-53
2022/05/18 07:22:08;;;;;;;6.50;4.33;;;;;;;;;;6238920;22;20469;-54
2022/05/18 07:24:39;;;;;;;5.23;3.90;;;;;;;;;;6235708;23;20814;-53
2022/05/18 07:27:05;;;;;;;4.27;3.10;;;;;;;;;;6238923;23;20907;-53
2022/05/18 07:29:31;;;;;;;5.77;3.60;;;;;;;;;;6217387;23;20386;-53
2022/05/18 07:32:13;;;;;;;6.77;3.90;;;;;;;;;;6240970;23;21101;-54
2022/05/18 07:34:41;;;;;;;6.43;4.30;;;;;;;;;;6233224;22;20476;-53
2022/05/18 07:37:07;;;;;;;4.10;3.30;;;;;;;;;;6225674;23;20717;-53
2022/05/18 07:39:33;;;;;;;5.40;4.07;;;;;;;;;;6240533;23;20906;-53
2022/05/18 07:41:59;;;;;;;5.13;3.90;;;;;;;;;;6215286;23;20502;-52
2022/05/18 07:44:36;;;;;;;5.53;3.77;;;;;;;;;;6236949;23;20437;-53
2022/05/18 07:47:05;;;;;;;9.73;4.20;;;;;;;;;;6234860;22;20390;-52
2022/05/18 07:49:41;;;;;;;5.80;4.37;;;;;;;;;;6239491;22;20382;-52
2022/05/18 07:52:27;;;;;;;5.20;3.60;;;;;;;;;;6233985;23;20993;-53
2022/05/18 07:54:53;;;;;;;8.90;4.50;;;;;;;;;;6239767;22;20375;-56
2022/05/18 07:57:19;;;;;;;9.33;4.03;;;;;;;;;;6234344;23;20367;-53
2022/05/18 07:59:45;;;;;;;9.87;4.30;;;;;;;;;;6240263;23;20370;-53
2022/05/18 08:02:11;;;;;;;5.63;4.20;;;;;;;;;;6223802;23;20754;-53
2022/05/18 08:04:37;;;;;;;4.43;3.63;;;;;;;;;;6237570;23;20422;-52
2022/05/18 08:07:25;;;;;;;3.70;3.13;;;;;;;;;;6235504;23;20387;-53
2022/05/18 08:15:23;;;;;;;4.83;3.63;;;;;;;;;;6240240;23;20711;-53
2022/05/18 08:17:49;;;;;;;4.07;3.10;;;;;;;;;;6234193;22;20378;-53
2022/05/18 08:20:17;;;;;;;5.93;3.97;;;;;;;;;;6239612;23;20378;-54
2022/05/18 08:22:46;;;;;;;4.57;3.60;;;;;;;;;;6226234;22;20372;-52
2022/05/18 08:25:13;;;;;;;4.83;4.07;;;;;;;;;;6239826;22;20433;-55
2022/05/18 08:27:40;;;;;;;4.00;3.30;;;;;;;;;;6224942;22;20489;-53
2022/05/18 08:30:07;;;;;;;4.60;3.13;;;;;;;;;;6242269;23;20366;-53
2022/05/18 08:32:33;;;;;;;5.53;3.63;;;;;;;;;;6224994;23;20394;-53
2022/05/18 08:34:59;;;;;;;5.43;3.53;;;;;;;;;;6240982;23;20923;-54
2022/05/18 08:37:29;;;;;;;7.27;3.60;;;;;;;;;;6232887;22;20175;-53
2022/05/18 08:39:57;;;;;;;5.73;3.80;;;;;;;;;;6240614;23;20378;-53
2022/05/18 08:42:33;;;;;;;6.27;4.00;;;;;;;;;;6235170;23;20378;-53
2022/05/18 08:44:59;;;;;;;6.63;4.03;;;;;;;;;;6236855;23;20452;-58
2022/05/18 08:47:28;;;;;;;7.10;4.10;;;;;;;;;;6218871;23;20640;-52
2022/05/18 08:50:00;;;;;;;5.57;4.10;;;;;;;;;;6238949;23;20234;-54
2022/05/18 08:52:46;;;;;;;6.77;4.33;;;;;;;;;;6230641;23;20756;-53
2022/05/18 08:55:31;;;;;;;3.77;3.37;;;;;;;;;;6214751;22;20390;-53
2022/05/18 08:58:10;;;;;;;6.23;3.73;;;;;;;;;;6237832;22;20428;-53
2022/05/18 09:00:37;;;;;;;4.57;4.13;;;;;;;;;;6218808;22;21007;-53
2022/05/18 09:03:20;;;;;;;5.23;4.00;;;;;;;;;;6226010;23;20367;-53
2022/05/18 09:10:12;;;;;;;5.50;3.37;;;;;;;;;;6221031;23;20797;-53
2022/05/18 09:11:51;;;;;;;5.40;3.73;;;;;;;;;;6237088;23;20431;-54
2022/05/18 09:14:22;;;;;;;5.77;3.70;;;;;;;;;;6253858;22;20962;-53
2022/05/18 09:19:55;;;;;;;5.40;3.20;;;;;;;;;;6231197;23;20365;-52
2022/05/18 09:22:34;;;;;;;13.43;4.80;;;;;;;;;;6236180;23;20377;-54
2022/05/18 09:25:14;;;;;;;3.53;2.57;;;;;;;;;;6238621;22;20437;-54
2022/05/18 09:27:46;;;;;;;3.83;3.17;;;;;;;;;;6232762;23;20377;-53
2022/05/18 09:30:15;;;;;;;5.27;3.13;;;;;;;;;;6241570;23;20421;-53
2022/05/18 09:32:44;;;;;;;5.63;3.77;;;;;;;;;;6230197;23;20366;-55
2022/05/18 09:35:17;;;;;;;4.90;3.00;;;;;;;;;;6241114;23;20374;-53
2022/05/18 09:38:03;;;;;;;4.80;2.97;;;;;;;;;;6237393;23;20382;-54
2022/05/18 09:40:40;;;;;;;5.27;2.87;;;;;;;;;;6238723;23;20397;-53
2022/05/18 09:43:07;;;;;;;8.00;3.70;;;;;;;;;;6235655;23;20370;-54
2022/05/18 09:45:36;;;;;;;4.17;2.40;;;;;;;;;;6240668;23;20399;-54
2022/05/18 09:48:08;;;;;;;4.37;3.30;;;;;;;;;;6234464;23;20382;-53
2022/05/18 09:50:36;;;;;;;4.27;2.60;;;;;;;;;;6239022;23;20387;-53
2022/05/18 09:53:01;;;;;;;5.37;4.00;;;;;;;;;;6223959;23;20767;-54
2022/05/18 09:55:27;;;;;;;3.50;3.10;;;;;;;;;;6239837;23;20394;-54
2022/05/18 09:58:10;;;;;;;3.80;2.93;;;;;;;;;;6233876;23;20388;-54
2022/05/18 10:00:37;;;;;;;3.43;2.90;;;;;;;;;;6239535;23;20713;-54
2022/05/18 10:08:56;;;;;;;3.37;2.97;;;;;;;;;;6233792;23;20421;-53
2022/05/18 10:11:29;;;;;;;5.53;3.40;;;;;;;;;;6240839;22;20378;-55
2022/05/18 10:14:02;;;;;;;3.27;2.47;;;;;;;;;;6215533;23;20393;-55
2022/05/18 10:16:51;;;;;;;3.60;2.47;;;;;;;;;;6236608;23;20877;-54
2022/05/18 10:19:29;;;;;;;3.00;2.47;;;;;;;;;;6235136;22;20385;-54
2022/05/18 10:22:14;;;;;;;4.20;2.80;;;;;;;;;;6211819;23;20393;-54
2022/05/18 10:24:58;;;;;;;3.03;2.63;;;;;;;;;;6237042;23;20517;-53
2022/05/18 10:27:33;;;;;;;4.40;3.13;;;;;;;;;;6231968;23;20661;-53
2022/05/18 10:30:11;;;;;;;3.60;2.70;;;;;;;;;;6238667;22;20384;-54
2022/05/18 10:32:38;;;;;;;3.57;3.00;;;;;;;;;;6190441;23;20378;-54
2022/05/18 10:35:04;;;;;;;5.53;2.90;;;;;;;;;;6235751;23;20690;-54
2022/05/18 10:37:34;;;;;;;6.97;2.90;;;;;;;;;;6226608;23;20467;-53
2022/05/18 10:40:11;;;;;;;5.30;3.27;;;;;;;;;;6239353;22;20400;-54
2022/05/18 10:42:50;;;;;;;4.03;3.20;;;;;;;;;;6220314;23;21021;-53
2022/05/18 10:45:30;;;;;;;3.43;2.60;;;;;;;;;;6239391;23;20467;-54
2022/05/18 10:48:04;;;;;;;2.67;2.33;;;;;;;;;;6232608;23;20374;-54
2022/05/18 10:50:37;;;;;;;2.80;2.00;;;;;;;;;;6239735;23;20461;-55
2022/05/18 10:53:15;;;;;;;5.37;2.20;;;;;;;;;;6237735;22;20386;-53
2022/05/18 10:56:05;;;;;;;3.17;2.30;;;;;;;;;;6240001;23;20418;-53
2022/05/18 10:58:41;;;;;;;6.23;2.50;;;;;;;;;;6217206;23;20370;-53
2022/05/18 11:01:33;;;;;;;3.27;2.60;;;;;;;;;;6226482;23;20374;-54
2022/05/18 11:04:13;;;;;;;3.80;2.77;;;;;;;;;;6215107;22;20465;-53
2022/05/18 11:06:39;;;;;;;3.70;2.50;;;;;;;;;;6237139;23;20405;-53
2022/05/18 11:09:07;;;;;;;3.00;2.30;;;;;;;;;;6221624;23;20932;-53
2022/05/18 11:11:39;;;;;;;3.70;2.63;;;;;;;;;;6239290;23;20434;-53
2022/05/18 11:14:15;;;;;;;3.40;2.00;;;;;;;;;;6229831;23;20389;-53
2022/05/18 11:17:04;;;;;;;4.90;2.57;;;;;;;;;;6239472;22;20377;-54
2022/05/18 11:19:47;;;;;;;2.87;2.20;;;;;;;;;;6225100;22;20374;-53
2022/05/18 11:22:33;;;;;;;3.70;2.90;;;;;;;;;;6204970;23;20397;-53
2022/05/18 11:25:26;;;;;;;2.93;2.50;;;;;;;;;;6235400;23;20979;-54
2022/05/18 11:28:23;;;;;;;8.03;2.90;;;;;;;;;;6227733;22;20375;-53
2022/05/18 11:31:35;;;;;;;3.33;2.90;;;;;;;;;;6223857;22;20378;-53
2022/05/18 11:37:26;;;;;;;3.33;2.60;;;;;;;;;;6037025;23;20431;-53
2022/05/18 11:39:59;;;;;;;4.27;2.50;;;;;;;;;;6222403;22;20378;-54
2022/05/18 11:42:28;;;;;;;2.67;2.30;;;;;;;;;;6214771;23;20417;-54
2022/05/18 11:45:05;;;;;;;4.30;2.70;;;;;;;;;;6236227;23;20426;-53
2022/05/18 11:47:31;;;;;;;2.70;2.03;;;;;;;;;;6225200;22;20389;-53
2022/05/18 11:50:16;;;;;;;3.17;2.83;;;;;;;;;;6235099;23;20392;-52
2022/05/18 11:53:04;;;;;;;6.13;2.57;;;;;;;;;;6220141;23;20386;-55
2022/05/18 11:55:36;;;;;;;3.20;2.90;;;;;;;;;;6234395;23;20414;-54
2022/05/18 11:58:09;;;;;;;3.67;2.50;;;;;;;;;;6229516;23;20687;-54
2022/05/18 12:00:56;;;;;;;3.70;2.63;;;;;;;;;;6235514;23;20885;-56
2022/05/18 12:03:25;;;;;;;2.93;2.47;;;;;;;;;;6222442;22;20695;-54
2022/05/18 12:05:54;;;;;;;4.73;2.90;;;;;;;;;;6239192;23;20935;-54
2022/05/18 12:08:27;;;;;;;3.37;2.87;;;;;;;;;;6218914;23;20750;-54
2022/05/18 12:10:57;;;;;;;4.13;3.00;;;;;;;;;;6236714;22;21023;-54
2022/05/18 12:13:34;;;;;;;3.43;2.40;;;;;;;;;;6218786;22;20394;-53
2022/05/18 12:16:16;;;;;;;3.33;2.87;;;;;;;;;;6238383;23;20853;-55
2022/05/18 12:18:43;;;;;;;3.20;2.30;;;;;;;;;;6219927;23;20912;-53
2022/05/18 12:21:14;;;;;;;4.23;3.10;;;;;;;;;;6236350;23;20363;-54
2022/05/18 12:23:43;;;;;;;3.67;3.20;;;;;;;;;;6220821;23;20434;-54
2022/05/18 12:26:09;;;;;;;5.47;2.60;;;;;;;;;;6236908;23;20857;-53
2022/05/18 12:28:35;;;;;;;3.80;2.63;;;;;;;;;;6215278;23;20382;-53
2022/05/18 12:31:01;;;;;;;3.63;2.80;;;;;;;;;;6238730;23;20304;-54
2022/05/18 12:33:27;;;;;;;2.93;2.13;;;;;;;;;;6207395;23;20159;-53
2022/05/18 12:36:03;;;;;;;2.73;2.20;;;;;;;;;;6236477;23;20426;-52
2022/05/18 12:38:40;;;;;;;4.00;2.90;;;;;;;;;;6212300;23;20382;-53
2022/05/18 12:41:26;;;;;;;4.23;2.73;;;;;;;;;;6233400;23;20378;-55
2022/05/18 12:44:03;;;;;;;2.40;2.10;;;;;;;;;;6226627;22;20661;-54
2022/05/18 12:46:36;;;;;;;4.70;2.93;;;;;;;;;;6236429;23;21040;-55
2022/05/18 12:49:34;;;;;;;4.73;2.70;;;;;;;;;;6239675;23;20746;-54
2022/05/18 12:52:37;;;;;;;4.70;4.30;;;;;;;;;;6236026;23;20374;-55
2022/05/18 12:55:18;;;;;;;3.10;2.70;;;;;;;;;;6128316;23;20388;-54
2022/05/18 12:57:44;;;;;;;3.50;2.53;;;;;;;;;;6224425;23;20376;-54
2022/05/18 13:00:10;;;;;;;4.07;2.73;;;;;;;;;;6235074;23;20700;-53
2022/05/18 13:02:38;;;;;;;3.70;2.80;;;;;;;;;;6238870;23;20362;-54
2022/05/18 13:05:11;;;;;;;12.43;3.10;;;;;;;;;;6227141;23;20450;-53
2022/05/18 13:07:37;;;;;;;5.60;2.67;;;;;;;;;;6233495;23;20415;-53
2022/05/18 13:10:05;;;;;;;2.90;2.63;;;;;;;;;;6242114;23;20424;-53
2022/05/18 13:12:39;;;;;;;4.20;3.00;;;;;;;;;;6231731;23;20377;-53
2022/05/18 13:18:12;;;;;;;5.57;3.10;;;;;;;;;;6203497;23;20373;-54
2022/05/18 13:20:42;;;;;;;6.03;3.40;;;;;;;;;;6237119;23;20382;-55
2022/05/18 13:23:09;;;;;;;3.90;2.70;;;;;;;;;;6238490;23;21066;-55
2022/05/18 13:25:42;;;;;;;2.87;2.33;;;;;;;;;;6237742;23;20473;-54
2022/05/18 13:28:09;;;;;;;3.20;2.40;;;;;;;;;;6222862;23;20382;-55
2022/05/18 13:30:39;;;;;;;3.00;2.70;;;;;;;;;;6234609;23;20846;-55
2022/05/18 13:33:06;;;;;;;3.10;2.27;;;;;;;;;;6239896;23;20420;-55
2022/05/18 13:35:32;;;;;;;4.20;2.67;;;;;;;;;;6223523;23;20374;-56
2022/05/18 13:38:04;;;;;;;3.47;2.30;;;;;;;;;;6241976;23;20366;-55
2022/05/18 13:40:31;;;;;;;4.77;2.70;;;;;;;;;;6220280;23;20810;-55
2022/05/18 13:43:00;;;;;;;3.60;2.50;;;;;;;;;;6240130;22;20370;-54
2022/05/18 13:45:30;;;;;;;2.53;2.33;;;;;;;;;;6226260;23;20454;-54
2022/05/18 13:47:56;;;;;;;2.87;2.30;;;;;;;;;;6239087;23;20505;-55
2022/05/18 13:50:32;;;;;;;3.10;2.80;;;;;;;;;;6225689;23;20381;-54
2022/05/18 13:53:00;;;;;;;4.20;2.73;;;;;;;;;;6240598;23;20374;-55
2022/05/18 13:55:26;;;;;;;6.37;3.10;;;;;;;;;;6228995;22;21437;-54
2022/05/18 13:57:54;;;;;;;3.37;2.70;;;;;;;;;;6211065;23;20416;-54
2022/05/18 14:00:30;;;;;;;3.67;2.63;;;;;;;;;;6230191;23;20429;-54
2022/05/18 14:02:57;;;;;;;4.43;2.40;;;;;;;;;;6238769;23;20381;-54
2022/05/18 14:05:23;;;;;;;3.60;3.00;;;;;;;;;;6237709;23;20495;-53
2022/05/18 14:07:52;;;;;;;3.47;2.40;;;;;;;;;;6240138;23;20397;-58
2022/05/18 14:10:20;;;;;;;2.80;2.53;;;;;;;;;;6224114;23;20491;-54
2022/05/18 14:12:46;;;;;;;4.03;2.73;;;;;;;;;;6237416;23;20478;-54
2022/05/18 14:15:12;;;;;;;2.90;2.47;;;;;;;;;;6224990;23;20913;-53
2022/05/18 14:18:03;;;;;;;8.63;3.57;;;;;;;;;;6231156;23;20436;-54
2022/05/18 14:20:35;;;;;;;2.90;2.60;;;;;;;;;;6241175;22;20436;-54
2022/05/18 14:23:02;;;;;;;5.13;2.73;;;;;;;;;;6244689;23;20366;-64
2022/05/18 14:25:30;;;;;;;3.60;2.40;;;;;;;;;;6240044;23;20527;-53
2022/05/18 14:28:07;;;;;;;4.57;2.90;;;;;;;;;;6238699;23;20663;-54
2022/05/18 14:30:37;;;;;;;3.87;2.50;;;;;;;;;;6240211;22;20383;-54
2022/05/18 14:33:09;;;;;;;4.27;3.30;;;;;;;;;;6221651;23;20386;-53
2022/05/18 14:35:37;;;;;;;3.50;3.00;;;;;;;;;;6241155;23;20370;-53
2022/05/18 14:38:04;;;;;;;4.37;3.00;;;;;;;;;;6231305;23;20424;-56
2022/05/18 14:40:34;;;;;;;4.50;3.10;;;;;;;;;;6237132;23;20374;-52
2022/05/18 14:43:14;;;;;;;4.30;2.53;;;;;;;;;;6225398;23;20377;-54
2022/05/18 14:45:44;;;;;;;3.30;2.50;;;;;;;;;;6237513;22;20405;-53
2022/05/18 14:48:32;;;;;;;4.07;2.70;;;;;;;;;;6230371;23;20686;-53
2022/05/18 14:51:08;;;;;;;3.67;2.93;;;;;;;;;;6219879;23;20480;-53
2022/05/18 14:53:45;;;;;;;2.93;2.63;;;;;;;;;;6239036;23;20374;-54
2022/05/18 14:56:11;;;;;;;6.37;2.77;;;;;;;;;;6236898;22;20377;-54
2022/05/18 14:58:38;;;;;;;4.40;3.07;;;;;;;;;;6187104;23;20463;-51
2022/05/18 15:01:05;;;;;;;3.10;2.80;;;;;;;;;;6232285;23;20408;-51
2022/05/18 15:03:34;;;;;;;3.03;2.73;;;;;;;;;;6215002;23;20412;-52
2022/05/18 15:06:00;;;;;;;3.03;2.70;;;;;;;;;;6232150;23;20946;-52
2022/05/18 15:08:38;;;;;;;5.40;2.67;;;;;;;;;;6225932;23;20386;-54
2022/05/18 15:11:14;;;;;;;3.20;2.77;;;;;;;;;;6231030;23;20381;-53
2022/05/18 15:13:47;;;;;;;4.63;3.13;;;;;;;;;;6191366;23;20386;-55
2022/05/18 15:16:23;;;;;;;3.53;2.73;;;;;;;;;;6232895;23;20743;-54
2022/05/18 15:18:59;;;;;;;3.23;2.40;;;;;;;;;;6248786;22;20390;-53
2022/05/18 15:21:38;;;;;;;4.87;3.17;;;;;;;;;;6234792;23;20402;-54
2022/05/18 15:24:08;;;;;;;4.37;3.07;;;;;;;;;;6199133;23;20509;-55
2022/05/18 15:26:35;;;;;;;5.80;3.00;;;;;;;;;;6236269;23;20462;-54
2022/05/18 15:29:19;;;;;;;3.40;2.90;;;;;;;;;;6214255;23;20567;-54
2022/05/18 15:31:48;;;;;;;5.70;3.80;;;;;;;;;;6231765;22;20386;-53
2022/05/18 15:34:16;;;;;;;3.57;3.17;;;;;;;;;;6227845;23;20374;-54
2022/05/18 15:36:44;;;;;;;3.33;2.83;;;;;;;;;;6236057;23;20879;-53
2022/05/18 15:39:11;;;;;;;4.77;2.80;;;;;;;;;;6225867;23;20849;-53
2022/05/18 15:41:38;;;;;;;3.77;3.00;;;;;;;;;;6234198;23;20484;-54
2022/05/18 15:44:04;;;;;;;7.10;3.03;;;;;;;;;;6229060;23;20453;-53